createdAt,value
2019-04-22T00:01:24.455Z,4.83
2019-04-22T00:03:55.314Z,4.53
2019-04-22T00:06:46.482Z,4.47
2019-04-22T00:09:19.226Z,4.20
2019-04-22T00:11:52.911Z,4.60
2019-04-22T00:14:17.872Z,4.23
2019-04-22T00:17:04.365Z,4.53
2019-04-22T00:19:30.333Z,4.43
2019-04-22T00:22:02.964Z,4.03
2019-04-22T00:24:33.658Z,4.13
2019-04-22T00:27:03.733Z,4.60
2019-04-22T00:29:49.886Z,4.73
2019-04-22T00:32:24.096Z,4.27
2019-04-22T00:34:53.674Z,4.70
2019-04-22T00:37:30.107Z,4.30
2019-04-22T00:39:57.506Z,4.60
2019-04-22T00:42:39.183Z,3.97
2019-04-22T00:45:07.950Z,4.40
2019-04-22T00:47:39.751Z,4.23
2019-04-22T00:50:28.440Z,4.27
2019-04-22T00:52:42.196Z,4.20
2019-04-22T00:55:12.264Z,4.17
2019-04-22T00:57:42.481Z,4.00
2019-04-22T01:00:18.222Z,3.87
2019-04-22T01:02:49.581Z,4.27
2019-04-22T01:05:22.048Z,3.90
2019-04-22T01:07:49.191Z,3.90
2019-04-22T01:10:27.075Z,4.00
2019-04-22T01:12:49.980Z,3.97
2019-04-22T01:15:28.596Z,4.10
2019-04-22T01:18:00.246Z,3.67
2019-04-22T01:20:57.430Z,4.03
2019-04-22T01:22:58.594Z,4.10
2019-04-22T01:25:30.970Z,3.87
2019-04-22T01:27:58.295Z,4.23
2019-04-22T01:30:23.244Z,4.17
2019-04-22T01:32:50.850Z,4.20
2019-04-22T01:35:31.138Z,4.20
2019-04-22T01:38:11.982Z,4.13
2019-04-22T01:40:54.222Z,4.50
2019-04-22T01:43:28.271Z,4.03
2019-04-22T01:45:53.346Z,4.17
2019-04-22T01:48:26.597Z,4.27
2019-04-22T01:50:51.730Z,4.00
2019-04-22T01:53:30.152Z,4.13
2019-04-22T01:56:02.043Z,4.20
2019-04-22T01:58:23.814Z,4.57
2019-04-22T02:00:59.937Z,4.53
2019-04-22T02:03:37.387Z,3.97
2019-04-22T02:06:05.615Z,4.37
2019-04-22T02:08:45.149Z,4.17
2019-04-22T02:11:24.090Z,4.50
2019-04-22T02:13:47.998Z,4.47
2019-04-22T02:16:16.200Z,4.50
2019-04-22T02:18:44.915Z,4.20
2019-04-22T02:21:13.798Z,4.33
2019-04-22T02:26:26.007Z,4.17
2019-04-22T02:28:45.832Z,3.90
2019-04-22T02:39:03.941Z,4.50
2019-04-22T02:47:04.427Z,4.43
2019-04-22T02:49:18.846Z,4.40
2019-04-22T02:51:32.626Z,4.20
2019-04-22T02:54:31.599Z,4.13
2019-04-22T02:56:54.287Z,4.47
2019-04-22T02:59:14.871Z,4.00
2019-04-22T03:01:47.864Z,4.00
2019-04-22T03:04:20.507Z,4.50
2019-04-22T03:06:43.634Z,3.83
2019-04-22T03:12:04.474Z,3.90
2019-04-22T03:14:22.299Z,3.80
2019-04-22T03:17:17.658Z,4.10
2019-04-22T03:19:48.215Z,4.20
2019-04-22T03:22:00.585Z,4.50
2019-04-22T03:27:19.458Z,4.00
2019-04-22T03:35:36.857Z,4.07
2019-04-22T03:43:02.407Z,4.33
2019-04-22T03:45:26.220Z,4.77
2019-04-22T03:47:56.161Z,4.47
2019-04-22T03:55:31.054Z,4.17
2019-04-22T04:03:01.093Z,5.00
2019-04-22T04:08:14.803Z,4.83
2019-04-22T04:13:11.476Z,5.20
2019-04-22T04:15:53.213Z,4.60
2019-04-22T04:18:29.701Z,5.00
2019-04-22T04:20:45.270Z,4.67
2019-04-22T04:23:37.588Z,4.90
2019-04-22T04:28:39.766Z,4.87
2019-04-22T04:30:46.598Z,4.57
2019-04-22T04:33:23.322Z,5.17
2019-04-22T04:35:54.501Z,4.73
2019-04-22T04:38:34.173Z,4.87
2019-04-22T04:41:00.406Z,5.00
2019-04-22T04:43:42.060Z,5.10
2019-04-22T04:46:06.924Z,4.83
2019-04-22T04:48:42.313Z,4.80
2019-04-22T04:53:31.819Z,4.77
2019-04-22T04:56:29.689Z,5.30
2019-04-22T05:11:32.988Z,5.00
2019-04-22T05:18:57.323Z,4.70
2019-04-22T05:21:29.647Z,5.10
2019-04-22T05:23:53.555Z,5.00
2019-04-22T05:26:31.295Z,4.80
2019-04-22T05:28:58.892Z,5.17
2019-04-22T05:31:35.521Z,5.10
2019-04-22T05:34:04.392Z,5.00
2019-04-22T05:36:37.969Z,5.00
2019-04-22T05:39:09.466Z,5.20
2019-04-22T05:41:38.858Z,5.10
2019-04-22T05:44:08.387Z,5.10
2019-04-22T05:46:34.528Z,5.20
2019-04-22T05:49:15.052Z,4.80
2019-04-22T05:51:42.356Z,4.90
2019-04-22T05:54:16.045Z,5.33
2019-04-22T05:56:51.466Z,5.07
2019-04-22T05:59:19.087Z,5.33
2019-04-22T06:01:59.724Z,5.30
2019-04-22T06:04:39.159Z,5.10
2019-04-22T06:06:46.688Z,4.97
2019-04-22T06:09:24.278Z,4.50
2019-04-22T06:11:55.631Z,4.53
2019-04-22T06:14:26.155Z,4.77
2019-04-22T06:17:08.179Z,4.80
2019-04-22T06:19:38.011Z,4.90
2019-04-22T06:22:16.864Z,4.90
2019-04-22T06:24:43.737Z,4.90
2019-04-22T06:27:19.140Z,4.80
2019-04-22T06:29:41.459Z,4.60
2019-04-22T06:32:26.610Z,4.63
2019-04-22T06:34:48.505Z,4.77
2019-04-22T06:39:51.108Z,4.50
2019-04-22T06:42:28.767Z,4.80
2019-04-22T06:44:58.015Z,4.90
2019-04-22T06:47:44.095Z,4.50
2019-04-22T06:50:03.882Z,4.97
2019-04-22T06:52:50.289Z,4.50
2019-04-22T06:55:05.974Z,4.73
2019-04-22T06:57:34.291Z,4.40
2019-04-22T07:00:10.641Z,5.07
2019-04-22T07:03:10.203Z,4.87
2019-04-22T07:05:11.022Z,4.60
2019-04-22T07:07:43.059Z,4.83
2019-04-22T07:10:23.794Z,4.70
2019-04-22T07:13:01.579Z,4.57
2019-04-22T07:15:35.748Z,4.37
2019-04-22T07:17:49.198Z,4.40
2019-04-22T07:20:24.147Z,4.30
2019-04-22T07:22:59.442Z,4.50
2019-04-22T07:25:23.542Z,4.77
2019-04-22T07:28:13.891Z,4.37
2019-04-22T07:30:28.098Z,4.10
2019-04-22T07:33:13.786Z,4.10
2019-04-22T07:35:36.534Z,3.87
2019-04-22T07:38:04.682Z,4.17
2019-04-22T07:40:40.380Z,4.30
2019-04-22T07:43:11.627Z,4.37
2019-04-22T07:45:42.729Z,4.07
2019-04-22T07:48:22.244Z,4.13
2019-04-22T07:53:13.963Z,4.27
2019-04-22T07:55:45.430Z,4.03
2019-04-22T07:58:18.667Z,4.27
2019-04-22T08:00:48.478Z,4.20
2019-04-22T08:03:32.072Z,3.90
2019-04-22T08:08:26.132Z,3.70
2019-04-22T08:10:56.794Z,4.10
2019-04-22T08:13:31.504Z,4.10
2019-04-22T08:16:02.603Z,3.43
2019-04-22T08:18:34.325Z,4.00
2019-04-22T08:21:07.566Z,3.77
2019-04-22T08:23:39.441Z,3.57
2019-04-22T08:26:09.882Z,3.60
2019-04-22T08:31:14.879Z,3.40
2019-04-22T08:33:39.765Z,3.67
2019-04-22T08:39:00.692Z,3.27
2019-04-22T08:41:27.290Z,3.10
2019-04-22T08:43:57.433Z,3.30
2019-04-22T08:46:33.251Z,3.23
2019-04-22T08:49:03.902Z,3.00
2019-04-22T08:59:11.074Z,3.23
2019-04-22T09:01:32.736Z,3.27
2019-04-22T09:07:02.546Z,3.00
2019-04-22T09:14:16.561Z,3.70
2019-04-22T09:17:05.729Z,3.47
2019-04-22T09:19:34.061Z,3.30
2019-04-22T09:24:44.175Z,3.13
2019-04-22T09:27:19.197Z,2.90
2019-04-22T09:34:47.286Z,3.37
2019-04-22T09:42:24.020Z,3.10
2019-04-22T09:44:55.576Z,3.20
2019-04-22T09:47:25.197Z,3.00
2019-04-22T09:52:30.831Z,3.20
2019-04-22T09:55:07.469Z,3.30
2019-04-22T09:57:31.453Z,3.10
2019-04-22T10:02:40.686Z,2.77
2019-04-22T10:07:43.240Z,3.10
2019-04-22T10:12:46.900Z,3.20
2019-04-22T10:15:15.003Z,2.97
2019-04-22T10:18:04.609Z,3.30
2019-04-22T10:20:20.592Z,3.10
2019-04-22T10:22:55.304Z,3.10
2019-04-22T10:25:25.219Z,3.03
2019-04-22T10:27:58.314Z,3.30
2019-04-22T10:30:33.326Z,3.10
2019-04-22T10:32:52.673Z,3.00
2019-04-22T10:35:12.362Z,3.00
2019-04-22T10:37:38.757Z,2.90
2019-04-22T10:40:19.596Z,3.20
2019-04-22T10:42:51.462Z,3.30
2019-04-22T10:45:23.892Z,2.90
2019-04-22T10:47:54.257Z,3.10
2019-04-22T10:50:46.885Z,2.90
2019-04-22T10:53:19.548Z,3.10
2019-04-22T10:55:51.587Z,3.00
2019-04-22T10:58:22.848Z,2.63
2019-04-22T11:00:55.808Z,2.90
2019-04-22T11:03:26.597Z,2.67
2019-04-22T11:05:59.102Z,2.60
2019-04-22T11:08:40.275Z,2.57
2019-04-22T11:11:16.075Z,3.10
2019-04-22T11:13:33.777Z,3.00
2019-04-22T11:16:05.349Z,2.83
2019-04-22T11:18:35.802Z,2.90
2019-04-22T11:21:05.838Z,3.03
2019-04-22T11:23:36.539Z,2.90
2019-04-22T11:26:08.140Z,2.70
2019-04-22T11:28:38.244Z,3.17
2019-04-22T11:31:08.293Z,3.10
2019-04-22T11:33:38.616Z,3.30
2019-04-22T11:36:10.033Z,3.00
2019-04-22T11:38:48.571Z,3.07
2019-04-22T11:41:12.646Z,3.03
2019-04-22T11:43:43.049Z,2.90
2019-04-22T11:46:13.467Z,3.07
2019-04-22T11:48:43.689Z,2.83
2019-04-22T11:51:14.042Z,3.10
2019-04-22T11:53:45.105Z,3.00
2019-04-22T11:56:16.635Z,2.77
2019-04-22T11:58:47.071Z,2.83
2019-04-22T12:01:17.203Z,3.10
2019-04-22T12:03:47.201Z,3.50
2019-04-22T12:06:18.000Z,3.23
2019-04-22T12:08:48.040Z,3.07
2019-04-22T12:11:18.649Z,2.90
2019-04-22T12:13:51.641Z,3.10
2019-04-22T12:16:23.210Z,3.37
2019-04-22T12:18:53.655Z,3.73
2019-04-22T12:21:23.714Z,3.37
2019-04-22T12:23:55.033Z,3.60
2019-04-22T12:26:28.594Z,3.17
2019-04-22T12:28:59.288Z,3.33
2019-04-22T12:31:29.433Z,3.17
2019-04-22T12:33:59.493Z,3.23
2019-04-22T12:36:30.706Z,3.20
2019-04-22T12:39:00.774Z,3.53
2019-04-22T12:41:33.767Z,3.30
2019-04-22T12:44:05.206Z,3.30
2019-04-22T12:46:36.527Z,2.57
2019-04-22T12:49:07.982Z,3.03
2019-04-22T12:51:38.856Z,3.20
2019-04-22T12:54:10.987Z,2.90
2019-04-22T12:56:41.910Z,2.70
2019-04-22T12:59:12.051Z,2.90
2019-04-22T13:01:42.679Z,3.07
2019-04-22T13:04:17.036Z,2.90
2019-04-22T13:06:45.863Z,2.90
2019-04-22T13:09:17.764Z,2.73
2019-04-22T13:11:48.992Z,3.00
2019-04-22T13:14:21.005Z,3.30
2019-04-22T13:16:51.319Z,3.00
2019-04-22T13:19:23.114Z,3.10
2019-04-22T13:21:54.419Z,3.20
2019-04-22T13:24:26.065Z,2.87
2019-04-22T13:26:57.068Z,2.70
2019-04-22T13:29:27.594Z,2.60
2019-04-22T13:31:58.554Z,2.50
2019-04-22T13:34:34.874Z,2.80
2019-04-22T13:37:01.180Z,2.97
2019-04-22T13:39:31.444Z,3.40
2019-04-22T13:42:05.617Z,2.63
2019-04-22T13:44:37.626Z,3.10
2019-04-22T13:47:22.239Z,3.00
2019-04-22T13:50:17.183Z,2.80
2019-04-22T13:55:05.640Z,2.73
2019-04-22T13:57:32.823Z,3.10
2019-04-22T13:59:52.413Z,2.63
2019-04-22T14:02:34.790Z,2.63
2019-04-22T14:05:06.507Z,2.93
2019-04-22T14:07:38.820Z,2.60
2019-04-22T14:10:09.223Z,3.37
2019-04-22T14:12:39.187Z,3.10
2019-04-22T14:15:09.978Z,2.70
2019-04-22T14:17:41.018Z,2.73
2019-04-22T14:20:12.984Z,2.70
2019-04-22T14:22:44.464Z,3.47
2019-04-22T14:25:14.910Z,3.23
2019-04-22T14:27:53.206Z,3.07
2019-04-22T14:30:18.840Z,3.30
2019-04-22T14:32:48.921Z,2.90
2019-04-22T14:35:20.866Z,3.30
2019-04-22T14:37:52.225Z,3.10
2019-04-22T14:40:24.414Z,2.90
2019-04-22T14:43:17.760Z,3.00
2019-04-22T14:46:05.554Z,3.00
2019-04-22T14:48:19.990Z,3.23
2019-04-22T14:50:51.717Z,2.93
2019-04-22T14:53:23.558Z,3.00
2019-04-22T14:55:36.709Z,3.03
2019-04-22T14:58:06.812Z,3.47
2019-04-22T15:00:38.156Z,2.97
2019-04-22T15:03:09.935Z,3.17
2019-04-22T15:05:40.135Z,3.00
2019-04-22T15:08:10.958Z,3.10
2019-04-22T15:10:42.221Z,3.13
2019-04-22T15:13:13.715Z,3.40
2019-04-22T15:16:05.981Z,3.07
2019-04-22T15:19:04.712Z,3.20
2019-04-22T15:21:34.908Z,2.80
2019-04-22T15:24:25.128Z,3.33
2019-04-22T15:26:58.574Z,3.13
2019-04-22T15:29:29.687Z,2.93
2019-04-22T15:32:00.107Z,3.23
2019-04-22T15:34:30.756Z,3.30
2019-04-22T15:37:02.350Z,3.30
2019-04-22T15:39:32.303Z,3.07
2019-04-22T15:42:11.692Z,3.03
2019-04-22T15:44:34.006Z,3.13
2019-04-22T15:47:05.007Z,2.87
2019-04-22T15:49:36.021Z,2.70
2019-04-22T15:52:07.996Z,3.27
2019-04-22T15:54:39.348Z,3.10
2019-04-22T15:57:10.809Z,3.00
2019-04-22T15:59:59.108Z,2.97
2019-04-22T16:02:13.877Z,3.20
2019-04-22T16:04:46.358Z,2.93
2019-04-22T16:07:17.138Z,3.20
2019-04-22T16:09:47.839Z,3.03
2019-04-22T16:12:26.129Z,3.13
2019-04-22T16:14:53.440Z,3.30
2019-04-22T16:17:22.454Z,2.80
2019-04-22T16:19:53.256Z,3.20
2019-04-22T16:22:25.133Z,3.20
2019-04-22T16:25:22.852Z,2.97
2019-04-22T16:27:52.765Z,3.13
2019-04-22T16:30:23.513Z,3.00
2019-04-22T16:33:01.741Z,3.30
2019-04-22T16:35:32.828Z,3.67
2019-04-22T16:38:04.393Z,3.17
2019-04-22T16:40:34.798Z,3.63
2019-04-22T16:43:07.775Z,3.07
2019-04-22T16:45:37.776Z,3.20
2019-04-22T16:48:09.292Z,3.10
2019-04-22T16:50:41.857Z,3.10
2019-04-22T16:53:13.804Z,3.30
2019-04-22T16:55:44.697Z,3.00
2019-04-22T16:58:15.011Z,3.50
2019-04-22T17:00:46.789Z,2.90
2019-04-22T17:03:42.807Z,2.80
2019-04-22T17:06:39.359Z,3.40
2019-04-22T17:09:10.888Z,3.00
2019-04-22T17:11:41.057Z,3.00
2019-04-22T17:14:11.384Z,3.07
2019-04-22T17:16:42.413Z,3.50
2019-04-22T17:19:13.158Z,3.40
2019-04-22T17:21:43.698Z,3.10
2019-04-22T17:24:14.059Z,3.10
2019-04-22T17:26:46.426Z,2.70
2019-04-22T17:29:16.841Z,2.93
2019-04-22T17:31:50.904Z,2.90
2019-04-22T17:34:18.685Z,3.10
2019-04-22T17:36:49.147Z,2.80
2019-04-22T17:39:33.073Z,3.03
2019-04-22T17:42:08.295Z,2.90
2019-04-22T17:44:48.410Z,3.10
2019-04-22T17:47:30.317Z,3.30
2019-04-22T17:50:13.210Z,2.90
2019-04-22T17:52:44.248Z,3.20
2019-04-22T17:55:11.246Z,2.90
2019-04-22T17:57:40.977Z,2.93
2019-04-22T18:00:14.489Z,3.00
2019-04-22T18:02:45.841Z,2.80
2019-04-22T18:05:05.503Z,2.93
2019-04-22T18:07:54.612Z,3.20
2019-04-22T18:13:08.779Z,2.90
2019-04-22T18:15:35.241Z,2.80
2019-04-22T18:18:08.727Z,3.00
2019-04-22T18:20:30.494Z,3.30
2019-04-22T18:22:54.733Z,2.70
2019-04-22T18:25:34.164Z,2.70
2019-04-22T18:30:36.357Z,2.70
2019-04-22T18:33:16.439Z,2.60
2019-04-22T18:35:39.386Z,2.87
2019-04-22T18:38:28.035Z,3.00
2019-04-22T18:40:53.683Z,3.10
2019-04-22T18:43:24.979Z,2.93
2019-04-22T18:46:02.011Z,3.00
2019-04-22T18:48:21.786Z,2.80
2019-04-22T18:51:11.658Z,2.93
2019-04-22T18:53:58.583Z,2.70
2019-04-22T18:56:37.706Z,3.37
2019-04-22T18:58:53.695Z,2.87
2019-04-22T19:01:15.609Z,3.27
2019-04-22T19:03:55.196Z,3.40
2019-04-22T19:06:47.420Z,3.23
2019-04-22T19:09:17.188Z,3.40
2019-04-22T19:11:52.091Z,3.00
2019-04-22T19:14:17.835Z,3.20
2019-04-22T19:16:48.155Z,3.03
2019-04-22T19:19:30.136Z,3.60
2019-04-22T19:21:49.984Z,3.50
2019-04-22T19:24:19.653Z,3.60
2019-04-22T19:29:25.881Z,3.23
2019-04-22T19:31:58.733Z,3.43
2019-04-22T19:34:25.295Z,3.30
2019-04-22T19:37:03.613Z,3.20
2019-04-22T19:39:33.096Z,3.40
2019-04-22T19:42:12.470Z,3.13
2019-04-22T19:44:39.242Z,3.50
2019-04-22T19:47:28.513Z,3.37
2019-04-22T19:49:48.377Z,3.60
2019-04-22T19:52:21.017Z,2.80
2019-04-22T19:54:43.925Z,3.60
2019-04-22T19:57:14.168Z,3.20
2019-04-22T19:59:46.542Z,3.50
2019-04-22T20:02:35.926Z,3.60
2019-04-22T20:05:37.197Z,3.30
2019-04-22T20:08:11.140Z,3.37
2019-04-22T20:10:40.238Z,3.80
2019-04-22T20:13:18.223Z,3.50
2019-04-22T20:15:35.817Z,3.20
2019-04-22T20:20:46.624Z,3.53
2019-04-22T20:23:15.933Z,3.40
2019-04-22T20:25:47.482Z,3.70
2019-04-22T20:28:21.094Z,3.93
2019-04-22T20:30:50.652Z,3.63
2019-04-22T20:33:29.098Z,3.67
2019-04-22T20:35:58.640Z,3.60
2019-04-22T20:38:25.953Z,3.70
2019-04-22T20:40:55.363Z,3.93
2019-04-22T20:43:38.501Z,3.60
2019-04-22T20:46:05.018Z,3.60
2019-04-22T20:48:39.748Z,3.73
2019-04-22T20:51:09.929Z,3.97
2019-04-22T20:53:44.196Z,4.10
2019-04-22T20:56:11.478Z,4.00
2019-04-22T20:58:38.775Z,3.77
2019-04-22T21:01:05.177Z,4.33
2019-04-22T21:03:33.271Z,4.00
2019-04-22T21:06:16.407Z,3.90
2019-04-22T21:08:47.592Z,4.00
2019-04-22T21:11:17.811Z,3.97
2019-04-22T21:13:50.383Z,4.03
2019-04-22T21:16:29.368Z,3.70
2019-04-22T21:18:47.422Z,3.93
2019-04-22T21:21:29.520Z,4.00
2019-04-22T21:23:48.930Z,4.00
2019-04-22T21:26:30.809Z,4.10
2019-04-22T21:28:58.410Z,4.30
2019-04-22T21:31:33.824Z,3.70
2019-04-22T21:34:04.179Z,4.33
2019-04-22T21:36:56.094Z,3.90
2019-04-22T21:39:03.812Z,4.90
2019-04-22T21:41:37.633Z,4.10
2019-04-22T21:44:12.758Z,4.03
2019-04-22T21:46:42.639Z,4.53
2019-04-22T21:49:23.180Z,4.10
2019-04-22T21:51:52.235Z,4.13
2019-04-22T21:54:22.150Z,3.87
2019-04-22T21:57:13.060Z,4.03
2019-04-22T21:59:35.777Z,4.57
2019-04-22T22:02:16.435Z,4.10
2019-04-22T22:04:44.299Z,4.40
2019-04-22T22:07:07.459Z,4.33
2019-04-22T22:09:50.713Z,4.20
2019-04-22T22:12:17.613Z,4.10
2019-04-22T22:14:55.848Z,4.43
2019-04-22T22:17:25.242Z,4.17
2019-04-22T22:19:57.750Z,4.37
2019-04-22T22:25:04.704Z,4.90
2019-04-22T22:27:39.023Z,4.47
2019-04-22T22:30:22.982Z,4.37
2019-04-22T22:32:40.508Z,4.67
2019-04-22T22:35:06.712Z,4.57
2019-04-22T22:37:28.421Z,4.10
2019-04-22T22:40:00.942Z,4.40
2019-04-22T22:42:32.307Z,4.63
2019-04-22T22:45:07.793Z,4.47
2019-04-22T22:47:44.168Z,4.40
2019-04-22T22:50:20.649Z,4.50
2019-04-22T22:53:11.228Z,4.30
2019-04-22T22:55:22.333Z,4.57
2019-04-22T22:57:58.404Z,4.50
2019-04-22T23:00:24.461Z,4.60
2019-04-22T23:03:23.303Z,4.20
2019-04-22T23:05:37.607Z,4.30
2019-04-22T23:08:09.622Z,4.37
2019-04-22T23:10:50.299Z,4.30
2019-04-22T23:13:14.672Z,4.13
2019-04-22T23:15:33.282Z,4.47
2019-04-22T23:17:51.870Z,4.80
2019-04-22T23:20:28.985Z,4.67
2019-04-22T23:23:17.147Z,4.70
2019-04-22T23:25:53.256Z,4.27
2019-04-22T23:28:32.488Z,4.17
2019-04-22T23:31:18.283Z,4.73
2019-04-22T23:34:00.942Z,4.77
2019-04-22T23:36:54.197Z,4.50
2019-04-22T23:39:35.341Z,4.80
2019-04-22T23:42:07.905Z,4.83
2019-04-22T23:44:35.016Z,4.53
2019-04-22T23:47:04.902Z,4.47
2019-04-22T23:49:34.850Z,4.63
2019-04-22T23:52:19.153Z,4.90
2019-04-22T23:54:56.801Z,5.03
2019-04-22T23:57:33.069Z,5.10
